Time;durP1;ratioP1;P1;durP2;ratioP2;P2;SDS_P1;SDS_P2;PMS_P1;PMS_P2;Temp;Humidity;BMP_temperature;BMP_pressure;BME280_temperature;BME280_humidity;BME280_pressure;Samples;Min_cycle;Max_cycle;Signal;HPM_P1;HPM_P2
2021/08/25 00:00:19;;;;;;;4.28;2.00;;;8.30;99.90;;;;;;5013474;28;20068;-40
2021/08/25 00:02:45;;;;;;;3.88;1.85;;;8.20;99.90;;;;;;5012949;28;20022;-41
2021/08/25 00:05:11;;;;;;;6.70;2.78;;;8.20;99.90;;;;;;5013252;28;20064;-47
2021/08/25 00:07:37;;;;;;;4.10;1.98;;;8.20;99.90;;;;;;5012009;28;20064;-42
2021/08/25 00:10:03;;;;;;;4.07;2.30;;;8.20;99.90;;;;;;5013136;28;20097;-41
2021/08/25 00:12:30;;;;;;;6.10;2.40;;;8.10;99.90;;;;;;5013171;28;20030;-44
2021/08/25 00:14:56;;;;;;;4.60;1.77;;;8.10;99.90;;;;;;5013267;28;20045;-40
2021/08/25 00:17:21;;;;;;;3.42;2.20;;;8.00;99.90;;;;;;5013053;28;20087;-44
2021/08/25 00:19:47;;;;;;;6.35;2.50;;;8.00;99.90;;;;;;5013328;28;20105;-43
2021/08/25 00:22:13;;;;;;;4.35;2.17;;;8.00;99.90;;;;;;5011895;28;20550;-44
2021/08/25 00:24:39;;;;;;;4.63;2.63;;;8.00;99.90;;;;;;5012970;28;20022;-42
2021/08/25 00:27:05;;;;;;;3.15;2.05;;;7.90;99.90;;;;;;5013057;28;20026;-44
2021/08/25 00:29:30;;;;;;;3.50;2.17;;;7.90;99.90;;;;;;5013002;28;20026;-41
2021/08/25 00:31:56;;;;;;;6.60;2.03;;;7.80;99.90;;;;;;5013067;28;20021;-43
2021/08/25 00:34:22;;;;;;;5.90;2.20;;;7.80;99.90;;;;;;5012930;28;20381;-42
2021/08/25 00:36:47;;;;;;;6.10;2.55;;;7.80;99.90;;;;;;5011524;28;20033;-43
2021/08/25 00:39:13;;;;;;;4.80;2.22;;;7.80;99.90;;;;;;5012815;28;20116;-41
2021/08/25 00:41:39;;;;;;;4.93;2.25;;;7.70;99.90;;;;;;5012844;28;20026;-43
2021/08/25 00:44:04;;;;;;;6.22;2.40;;;7.70;99.90;;;;;;5012995;28;20022;-43
2021/08/25 00:46:31;;;;;;;5.75;2.58;;;7.70;99.90;;;;;;5012839;28;20030;-41
2021/08/25 00:48:59;;;;;;;5.60;2.58;;;7.60;99.90;;;;;;5012815;28;20021;-43
2021/08/25 00:51:24;;;;;;;3.65;2.10;;;7.60;99.90;;;;;;5011517;28;20050;-46
2021/08/25 00:53:50;;;;;;;2.45;1.67;;;7.60;99.90;;;;;;5012658;28;20068;-45
2021/08/25 00:56:16;;;;;;;4.53;2.38;;;7.60;99.90;;;;;;5012797;28;20022;-41
2021/08/25 00:58:42;;;;;;;4.80;2.53;;;7.50;99.90;;;;;;5012657;28;20130;-43
2021/08/25 01:01:19;;;;;;;2.60;1.95;;;7.50;99.90;;;;;;5012758;28;20026;-42
2021/08/25 01:03:49;;;;;;;3.28;2.10;;;7.50;99.90;;;;;;5012544;28;20108;-42
2021/08/25 01:06:21;;;;;;;3.25;2.00;;;7.50;99.90;;;;;;5011310;28;20104;-44
2021/08/25 01:08:47;;;;;;;5.75;2.33;;;7.50;99.90;;;;;;5012558;28;20034;-44
2021/08/25 01:11:13;;;;;;;4.68;2.20;;;7.40;99.90;;;;;;5012617;28;20049;-43
2021/08/25 01:13:39;;;;;;;5.10;2.28;;;7.40;99.90;;;;;;5012479;28;20045;-44
2021/08/25 01:16:05;;;;;;;6.55;2.60;;;7.40;99.90;;;;;;5012576;28;20026;-44
2021/08/25 01:18:32;;;;;;;3.40;2.03;;;7.40;99.90;;;;;;5012504;28;20041;-47
2021/08/25 01:21:02;;;;;;;3.25;1.98;;;7.30;99.90;;;;;;5012449;28;20037;-41
2021/08/25 01:23:28;;;;;;;5.10;2.28;;;7.30;99.90;;;;;;5010734;28;20026;-44
2021/08/25 01:25:57;;;;;;;4.13;1.90;;;7.30;99.90;;;;;;5012484;28;20037;-45
2021/08/25 01:28:26;;;;;;;3.55;2.13;;;7.30;99.90;;;;;;5013197;28;20029;-41
2021/08/25 01:30:52;;;;;;;3.75;2.20;;;7.20;99.90;;;;;;5015971;28;20462;-40
2021/08/25 01:33:19;;;;;;;3.80;2.20;;;7.20;99.90;;;;;;5016102;28;20030;-41
2021/08/25 01:35:45;;;;;;;3.60;2.15;;;7.20;99.90;;;;;;5015867;28;20033;-41
2021/08/25 01:38:28;;;;;;;5.60;2.67;;;7.10;99.90;;;;;;5014813;28;20029;-43
2021/08/25 01:40:54;;;;;;;4.57;1.90;;;7.10;99.90;;;;;;5015886;28;20033;-42
2021/08/25 01:43:19;;;;;;;3.25;2.20;;;7.00;99.90;;;;;;5015851;28;20025;-42
2021/08/25 01:45:45;;;;;;;3.42;1.80;;;7.00;99.90;;;;;;5015855;28;20140;-41
2021/08/25 01:48:11;;;;;;;3.85;2.08;;;7.00;99.90;;;;;;5015656;28;20061;-42
2021/08/25 01:50:38;;;;;;;5.35;1.98;;;7.00;99.90;;;;;;5015804;28;20057;-40
2021/08/25 01:53:03;;;;;;;4.70;2.53;;;7.00;99.90;;;;;;5014576;28;20018;-41
2021/08/25 01:55:29;;;;;;;3.92;2.08;;;7.00;99.90;;;;;;5015705;28;20021;-41
2021/08/25 01:57:54;;;;;;;3.10;2.00;;;6.90;99.90;;;;;;5015595;28;20036;-45
2021/08/25 02:00:20;;;;;;;3.33;2.35;;;6.90;99.90;;;;;;5015753;28;20025;-43
2021/08/25 02:02:45;;;;;;;4.53;2.22;;;6.90;99.90;;;;;;5015462;28;20034;-40
2021/08/25 02:05:11;;;;;;;3.80;1.83;;;6.90;99.90;;;;;;5015518;28;20084;-40
2021/08/25 02:07:36;;;;;;;4.55;2.35;;;6.80;99.90;;;;;;5014136;28;20029;-42
2021/08/25 02:10:04;;;;;;;6.13;2.35;;;6.80;99.90;;;;;;5015659;28;20100;-43
2021/08/25 02:12:29;;;;;;;4.03;1.90;;;6.80;99.90;;;;;;5015157;28;20052;-45
2021/08/25 02:14:55;;;;;;;3.75;1.88;;;6.80;99.90;;;;;;5015374;28;20022;-42
2021/08/25 02:17:20;;;;;;;4.20;2.28;;;6.80;99.90;;;;;;5015224;28;20097;-43
2021/08/25 02:19:46;;;;;;;3.33;1.60;;;6.80;99.90;;;;;;5015485;28;20100;-45
2021/08/25 02:22:11;;;;;;;4.95;2.28;;;6.70;99.90;;;;;;5014072;28;20481;-41
2021/08/25 02:24:37;;;;;;;4.50;2.10;;;6.70;99.90;;;;;;5015107;28;20034;-43
2021/08/25 02:27:03;;;;;;;7.03;2.40;;;6.70;99.90;;;;;;5015100;28;20500;-44
2021/08/25 02:29:28;;;;;;;4.15;1.88;;;6.70;99.90;;;;;;5015215;28;20079;-41
2021/08/25 02:31:54;;;;;;;4.68;2.15;;;6.60;99.90;;;;;;5014915;28;20061;-43
2021/08/25 02:34:19;;;;;;;4.95;2.28;;;6.60;99.90;;;;;;5014996;28;20499;-41
2021/08/25 02:36:45;;;;;;;5.72;2.10;;;6.60;99.90;;;;;;5013717;28;20041;-41
2021/08/25 02:39:10;;;;;;;4.60;2.47;;;6.60;99.90;;;;;;5014657;28;20038;-40
2021/08/25 02:41:36;;;;;;;4.65;2.17;;;6.50;99.90;;;;;;5014039;28;20061;-41
2021/08/25 02:44:01;;;;;;;4.35;2.30;;;6.50;99.90;;;;;;5014778;28;20116;-44
2021/08/25 02:46:27;;;;;;;3.13;1.98;;;6.50;99.90;;;;;;5014631;28;20037;-43
2021/08/25 02:48:52;;;;;;;6.10;2.22;;;6.50;99.90;;;;;;5014660;28;20143;-41
2021/08/25 02:51:18;;;;;;;4.75;1.98;;;6.40;99.90;;;;;;5012356;28;20513;-41
2021/08/25 02:53:43;;;;;;;5.55;1.95;;;6.40;99.90;;;;;;5014502;28;20358;-43
2021/08/25 02:56:09;;;;;;;4.50;2.22;;;6.40;99.90;;;;;;5014588;28;20018;-41
2021/08/25 02:58:35;;;;;;;4.88;2.50;;;6.30;99.90;;;;;;5014517;28;20228;-42
2021/08/25 03:01:00;;;;;;;4.32;2.17;;;6.30;99.90;;;;;;5014343;28;20056;-39
2021/08/25 03:03:26;;;;;;;3.17;1.85;;;6.30;99.90;;;;;;5014175;28;20077;-40
2021/08/25 03:05:51;;;;;;;4.38;2.53;;;6.30;99.90;;;;;;5014314;28;20028;-41
2021/08/25 03:08:17;;;;;;;5.03;2.45;;;6.30;99.90;;;;;;5012961;28;20389;-41
2021/08/25 03:10:42;;;;;;;4.22;2.63;;;6.30;99.90;;;;;;5014232;28;20033;-44
2021/08/25 03:13:08;;;;;;;3.83;2.28;;;6.20;99.90;;;;;;5014323;28;20034;-43
2021/08/25 03:15:34;;;;;;;4.40;2.40;;;6.20;99.90;;;;;;5014122;28;20022;-41
2021/08/25 03:18:00;;;;;;;4.85;1.80;;;6.20;99.90;;;;;;5014229;28;20532;-44
2021/08/25 03:20:25;;;;;;;4.63;2.03;;;6.10;99.90;;;;;;5014176;28;20034;-41
2021/08/25 03:22:51;;;;;;;4.80;2.33;;;6.10;99.90;;;;;;5012769;28;20065;-41
2021/08/25 03:25:16;;;;;;;6.25;2.40;;;6.10;99.90;;;;;;5014150;28;20022;-40
2021/08/25 03:27:42;;;;;;;7.70;2.30;;;6.10;99.90;;;;;;5013781;28;20034;-40
2021/08/25 03:30:08;;;;;;;6.68;3.45;;;6.10;99.90;;;;;;5014036;28;20036;-41
2021/08/25 03:32:34;;;;;;;3.95;2.28;;;6.10;99.90;;;;;;5013928;28;20025;-41
2021/08/25 03:35:00;;;;;;;5.25;2.58;;;6.10;99.90;;;;;;5013917;28;20069;-41
2021/08/25 03:37:25;;;;;;;5.05;2.75;;;6.10;99.90;;;;;;5012647;28;20034;-41
2021/08/25 03:39:51;;;;;;;7.32;2.85;;;6.10;99.90;;;;;;5013822;28;20038;-42
2021/08/25 03:42:16;;;;;;;4.88;2.45;;;6.10;99.90;;;;;;5013871;28;20117;-41
2021/08/25 03:44:42;;;;;;;3.30;2.08;;;6.00;99.90;;;;;;5013626;28;20029;-43
2021/08/25 03:47:08;;;;;;;5.13;1.98;;;6.00;99.90;;;;;;5013736;28;20026;-40
2021/08/25 03:49:34;;;;;;;5.53;2.47;;;6.00;99.90;;;;;;5013743;28;20065;-43
2021/08/25 03:52:01;;;;;;;6.30;2.13;;;6.00;99.90;;;;;;5010510;28;20129;-43
2021/08/25 03:54:27;;;;;;;3.53;1.85;;;6.00;99.90;;;;;;5031369;28;20018;-41
2021/08/25 03:56:53;;;;;;;3.58;2.28;;;6.00;99.90;;;;;;5033010;28;20049;-41
2021/08/25 03:59:19;;;;;;;5.13;2.10;;;6.00;99.90;;;;;;5032864;28;20033;-43
2021/08/25 04:01:45;;;;;;;5.32;2.35;;;6.00;99.90;;;;;;5032783;28;20063;-41
2021/08/25 04:04:10;;;;;;;6.80;1.90;;;6.00;99.90;;;;;;5032856;28;20385;-40
2021/08/25 04:06:36;;;;;;;3.75;2.08;;;6.00;99.90;;;;;;5031581;28;20034;-41
2021/08/25 04:09:03;;;;;;;7.28;2.33;;;5.90;99.90;;;;;;5032955;28;20069;-41
2021/08/25 04:11:28;;;;;;;5.57;2.33;;;6.00;99.90;;;;;;5032977;28;20045;-41
2021/08/25 04:13:54;;;;;;;6.38;2.00;;;6.00;99.90;;;;;;5032639;28;20021;-43
2021/08/25 04:16:19;;;;;;;5.15;2.42;;;6.00;99.90;;;;;;5032776;28;20464;-41
2021/08/25 04:18:45;;;;;;;5.93;2.70;;;6.00;99.90;;;;;;5032511;28;20065;-41
2021/08/25 04:21:10;;;;;;;5.50;2.17;;;6.00;99.90;;;;;;5031400;28;20043;-41
2021/08/25 04:23:36;;;;;;;4.82;2.65;;;6.10;99.90;;;;;;5021531;28;20030;-41
2021/08/25 04:26:02;;;;;;;6.63;2.45;;;6.10;99.90;;;;;;5010942;28;20034;-40
2021/08/25 04:28:27;;;;;;;4.78;2.22;;;6.10;99.90;;;;;;5012454;28;20037;-41
2021/08/25 04:30:53;;;;;;;3.95;2.20;;;6.20;99.90;;;;;;5012747;28;20057;-41
2021/08/25 04:33:18;;;;;;;3.88;2.50;;;6.20;99.90;;;;;;5012915;28;20496;-41
2021/08/25 04:35:43;;;;;;;5.03;2.45;;;6.20;99.90;;;;;;5012974;28;20033;-41
2021/08/25 04:38:09;;;;;;;5.85;2.40;;;6.30;99.90;;;;;;5011942;28;20022;-44
2021/08/25 04:40:34;;;;;;;4.45;2.60;;;6.30;99.90;;;;;;5012972;28;20121;-41
2021/08/25 04:43:00;;;;;;;4.82;1.98;;;6.40;99.90;;;;;;5012766;28;20026;-41
2021/08/25 04:45:26;;;;;;;4.88;2.53;;;6.40;99.90;;;;;;5012775;28;20038;-40
2021/08/25 04:47:52;;;;;;;4.57;2.22;;;6.50;99.90;;;;;;5019593;28;20025;-41
2021/08/25 04:50:18;;;;;;;7.88;2.58;;;6.50;99.90;;;;;;5032334;28;20029;-40
2021/08/25 04:52:43;;;;;;;4.30;2.33;;;6.60;99.90;;;;;;5013948;28;20022;-41
2021/08/25 04:55:09;;;;;;;3.67;1.90;;;6.90;99.90;;;;;;5011968;28;20389;-43
2021/08/25 04:57:34;;;;;;;4.40;2.17;;;7.90;99.90;;;;;;5012416;28;20100;-42
2021/08/25 05:00:00;;;;;;;3.40;1.80;;;9.10;99.90;;;;;;5012410;28;20060;-41
2021/08/25 05:02:25;;;;;;;3.50;2.22;;;10.00;99.90;;;;;;5012738;28;20076;-40
2021/08/25 05:04:51;;;;;;;4.03;2.10;;;10.40;99.90;;;;;;5015860;28;20072;-41
2021/08/25 05:07:16;;;;;;;5.30;2.38;;;10.60;99.90;;;;;;5015263;28;20026;-40
2021/08/25 05:09:42;;;;;;;3.72;2.15;;;11.30;99.90;;;;;;5016477;28;20053;-43
2021/08/25 05:12:07;;;;;;;3.90;2.20;;;11.90;99.90;;;;;;5016628;28;20346;-42
2021/08/25 05:14:34;;;;;;;4.68;2.60;;;12.70;99.90;;;;;;5016383;28;20022;-43
2021/08/25 05:17:01;;;;;;;4.18;2.20;;;13.80;99.90;;;;;;5016402;28;20029;-41
2021/08/25 05:19:27;;;;;;;3.75;2.30;;;14.70;99.90;;;;;;5016551;28;20038;-42
2021/08/25 05:21:52;;;;;;;3.03;2.10;;;15.60;99.90;;;;;;5015110;28;20030;-42
2021/08/25 05:24:18;;;;;;;3.50;2.22;;;16.40;99.90;;;;;;5016474;28;20084;-41
2021/08/25 05:26:43;;;;;;;3.78;2.35;;;17.20;99.90;;;;;;5016389;28;20113;-43
2021/08/25 05:29:08;;;;;;;3.63;2.40;;;18.00;99.90;;;;;;5016047;28;20444;-45
2021/08/25 05:31:34;;;;;;;3.22;2.30;;;18.70;99.90;;;;;;5016348;28;20057;-44
2021/08/25 05:33:59;;;;;;;4.03;2.17;;;19.50;99.90;;;;;;5016234;28;20026;-43
2021/08/25 05:36:25;;;;;;;2.75;2.00;;;20.20;99.90;;;;;;5014992;28;20068;-45
2021/08/25 05:38:51;;;;;;;2.63;2.03;;;20.60;99.90;;;;;;5016132;28;20192;-42
2021/08/25 05:41:16;;;;;;;2.50;2.20;;;21.10;99.90;;;;;;5016143;28;20038;-46
2021/08/25 05:43:42;;;;;;;4.65;2.85;;;21.60;99.90;;;;;;5015943;28;20477;-46
2021/08/25 05:46:07;;;;;;;3.30;2.10;;;22.10;99.90;;;;;;5015952;28;20045;-43
2021/08/25 05:48:33;;;;;;;4.40;2.50;;;22.40;99.70;;;;;;5015911;28;20509;-44
2021/08/25 05:50:58;;;;;;;2.88;2.22;;;23.00;97.10;;;;;;5014565;28;20037;-43
2021/08/25 05:53:25;;;;;;;3.38;2.28;;;23.40;94.80;;;;;;5015876;28;20026;-47
2021/08/25 05:55:50;;;;;;;3.50;2.28;;;23.90;92.90;;;;;;5015763;28;20097;-41
2021/08/25 05:58:16;;;;;;;4.38;2.38;;;24.50;90.70;;;;;;5015765;28;20109;-44
2021/08/25 06:00:41;;;;;;;4.20;2.42;;;24.90;85.50;;;;;;5015647;28;20038;-43
2021/08/25 06:03:07;;;;;;;5.13;2.30;;;25.20;82.70;;;;;;5015265;28;20033;-44
2021/08/25 06:05:32;;;;;;;5.22;2.17;;;25.50;79.70;;;;;;4996649;28;20037;-45
2021/08/25 06:07:58;;;;;;;3.45;2.60;;;25.70;77.00;;;;;;4977701;28;20053;-44
2021/08/25 06:10:23;;;;;;;3.72;2.50;;;26.00;72.40;;;;;;5015580;28;20049;-44
2021/08/25 06:12:49;;;;;;;3.72;2.53;;;26.30;68.00;;;;;;5015439;28;20037;-45
2021/08/25 06:15:14;;;;;;;3.45;2.58;;;26.70;64.70;;;;;;5015203;28;20104;-45
2021/08/25 06:17:40;;;;;;;3.67;2.28;;;27.00;63.40;;;;;;5015496;28;20026;-43
2021/08/25 06:20:06;;;;;;;3.45;2.58;;;27.20;61.30;;;;;;5015386;28;20030;-44
2021/08/25 06:22:32;;;;;;;4.25;2.78;;;27.80;57.40;;;;;;5014490;28;20425;-44
2021/08/25 06:24:57;;;;;;;4.70;3.10;;;28.50;54.20;;;;;;5015301;28;20033;-42
2021/08/25 06:27:24;;;;;;;3.85;2.70;;;29.10;50.00;;;;;;5015295;28;20038;-43
2021/08/25 06:29:50;;;;;;;4.60;2.88;;;29.80;46.70;;;;;;5015110;28;20026;-45
2021/08/25 06:32:16;;;;;;;3.45;2.50;;;30.50;44.10;;;;;;5015210;28;20128;-46
2021/08/25 06:34:41;;;;;;;4.57;2.92;;;31.00;42.10;;;;;;5015249;28;20030;-45
2021/08/25 06:37:07;;;;;;;3.83;2.20;;;30.60;41.10;;;;;;5014097;28;20491;-43
2021/08/25 06:39:32;;;;;;;6.60;2.58;;;30.20;40.40;;;;;;5015078;28;20037;-46
2021/08/25 06:41:58;;;;;;;3.33;2.75;;;30.20;41.00;;;;;;5014975;28;20111;-45
2021/08/25 06:44:23;;;;;;;4.75;2.72;;;30.00;39.90;;;;;;5014849;28;20044;-45
2021/08/25 06:46:49;;;;;;;3.15;2.65;;;29.60;39.20;;;;;;5015014;28;20025;-43
2021/08/25 06:49:15;;;;;;;5.05;2.70;;;29.10;38.30;;;;;;5014765;28;20112;-45
2021/08/25 06:51:41;;;;;;;4.25;2.50;;;28.50;38.40;;;;;;5013985;28;20117;-44
2021/08/25 06:54:07;;;;;;;4.70;3.28;;;27.70;38.80;;;;;;5014777;28;20025;-42
2021/08/25 06:56:32;;;;;;;3.10;2.38;;;27.20;39.50;;;;;;5014840;28;20030;-45
2021/08/25 06:58:58;;;;;;;4.90;3.13;;;26.90;39.10;;;;;;5014423;28;20033;-45
2021/08/25 07:01:24;;;;;;;4.10;2.88;;;27.00;39.00;;;;;;5014714;28;20034;-46
2021/08/25 07:03:50;;;;;;;6.85;2.80;;;27.10;37.50;;;;;;5014529;28;20079;-43
2021/08/25 07:06:15;;;;;;;4.70;2.88;;;27.00;37.30;;;;;;5013528;28;20065;-43
2021/08/25 07:08:41;;;;;;;3.17;2.67;;;26.70;37.10;;;;;;5014431;28;20038;-43
2021/08/25 07:11:06;;;;;;;2.90;2.28;;;26.40;37.30;;;;;;5014409;28;20018;-42
2021/08/25 07:13:32;;;;;;;3.17;2.30;;;26.10;37.20;;;;;;5014363;28;20026;-45
2021/08/25 07:15:57;;;;;;;3.42;2.42;;;25.90;37.30;;;;;;5014403;28;20026;-41
2021/08/25 07:18:23;;;;;;;3.85;2.53;;;26.20;37.00;;;;;;5014375;28;20029;-45
2021/08/25 07:20:48;;;;;;;4.03;2.45;;;26.50;35.60;;;;;;5014298;28;20034;-47
2021/08/25 07:23:14;;;;;;;4.18;2.88;;;26.80;34.90;;;;;;5013331;28;20480;-42
2021/08/25 07:25:40;;;;;;;3.88;2.88;;;27.30;33.70;;;;;;5013852;28;20050;-44
2021/08/25 07:28:06;;;;;;;6.97;3.08;;;27.90;32.20;;;;;;5013766;28;20489;-45
2021/08/25 07:30:32;;;;;;;3.28;2.80;;;28.40;30.00;;;;;;5014148;28;20028;-43
2021/08/25 07:32:57;;;;;;;4.03;3.17;;;28.30;27.80;;;;;;5014080;28;20022;-45
2021/08/25 07:35:24;;;;;;;3.25;2.35;;;27.80;29.70;;;;;;5014037;28;20026;-43
2021/08/25 07:37:50;;;;;;;4.28;2.55;;;27.50;30.30;;;;;;5013157;28;20030;-40
2021/08/25 07:40:15;;;;;;;5.20;2.63;;;27.20;30.20;;;;;;5013931;28;20548;-42
2021/08/25 07:42:41;;;;;;;3.97;2.83;;;27.00;30.10;;;;;;5013725;28;20048;-48
2021/08/25 07:45:06;;;;;;;3.60;2.53;;;26.70;30.80;;;;;;5013777;28;20033;-44
2021/08/25 07:47:32;;;;;;;4.68;3.20;;;26.30;31.00;;;;;;5013769;28;20200;-43
2021/08/25 07:49:57;;;;;;;5.35;3.22;;;26.20;31.10;;;;;;5013812;28;20022;-44
2021/08/25 07:52:23;;;;;;;4.07;2.72;;;26.10;31.30;;;;;;5012846;28;20021;-43
2021/08/25 07:54:49;;;;;;;3.42;2.47;;;25.90;31.30;;;;;;5013785;28;20412;-43
2021/08/25 07:57:14;;;;;;;4.75;2.53;;;25.90;31.50;;;;;;5013559;28;20025;-43
2021/08/25 07:59:40;;;;;;;4.15;2.65;;;26.00;31.20;;;;;;5013629;28;20045;-45
2021/08/25 08:02:06;;;;;;;4.82;2.72;;;26.20;30.30;;;;;;5013573;28;20428;-43
2021/08/25 08:04:32;;;;;;;3.20;2.40;;;26.20;30.20;;;;;;5013336;28;20046;-45
2021/08/25 08:06:57;;;;;;;6.43;2.67;;;26.00;30.00;;;;;;5012553;28;20034;-48
2021/08/25 08:09:22;;;;;;;6.13;3.15;;;25.70;29.90;;;;;;5013313;28;20038;-43
2021/08/25 08:11:48;;;;;;;6.32;2.72;;;25.70;29.90;;;;;;5013302;28;20061;-46
2021/08/25 08:14:14;;;;;;;4.38;2.65;;;25.70;29.50;;;;;;5013280;28;20034;-42
2021/08/25 08:16:43;;;;;;;3.85;2.30;;;26.00;29.10;;;;;;5013344;28;20022;-43
2021/08/25 08:19:29;;;;;;;5.22;2.15;;;25.90;28.50;;;;;;5013229;28;20441;-42
2021/08/25 08:21:59;;;;;;;6.75;2.90;;;25.80;28.90;;;;;;5012369;28;20033;-44
2021/08/25 08:24:25;;;;;;;4.90;3.35;;;25.60;29.00;;;;;;5013027;28;20029;-42
2021/08/25 08:26:51;;;;;;;6.63;5.03;;;25.70;29.10;;;;;;5013160;28;20386;-45
2021/08/25 08:29:16;;;;;;;8.43;5.65;;;25.70;28.40;;;;;;5012985;28;20026;-43
2021/08/25 08:31:42;;;;;;;4.78;3.72;;;26.00;27.80;;;;;;5013136;28;20026;-43
2021/08/25 08:34:07;;;;;;;5.75;3.92;;;26.20;25.40;;;;;;5013074;28;20034;-43
2021/08/25 08:36:33;;;;;;;6.50;4.75;;;26.30;25.50;;;;;;5012061;28;20077;-42
2021/08/25 08:38:58;;;;;;;6.72;4.80;;;25.90;26.00;;;;;;5012000;28;20473;-45
2021/08/25 08:41:24;;;;;;;6.28;3.83;;;25.50;26.20;;;;;;5012993;28;20162;-43
2021/08/25 08:43:51;;;;;;;4.47;3.20;;;25.10;26.50;;;;;;5013010;28;20057;-43
2021/08/25 08:46:19;;;;;;;4.30;3.03;;;24.70;27.10;;;;;;5012880;28;20033;-42
2021/08/25 08:48:45;;;;;;;3.60;2.67;;;24.40;27.70;;;;;;5012947;28;20264;-42
2021/08/25 08:51:14;;;;;;;4.00;2.55;;;24.00;27.30;;;;;;5011809;28;20030;-43
2021/08/25 08:53:40;;;;;;;4.05;2.30;;;23.70;28.20;;;;;;5012762;28;20065;-43
2021/08/25 08:56:06;;;;;;;4.68;2.10;;;23.50;28.60;;;;;;5012842;28;20034;-44
2021/08/25 08:58:31;;;;;;;8.35;2.92;;;23.20;28.50;;;;;;5012788;28;20052;-43
2021/08/25 09:00:57;;;;;;;6.25;2.67;;;22.90;28.70;;;;;;5012809;28;20025;-43
2021/08/25 09:03:26;;;;;;;3.45;2.30;;;22.70;29.10;;;;;;5012603;28;20708;-45
2021/08/25 09:05:56;;;;;;;3.38;2.17;;;22.50;29.20;;;;;;5011830;28;20057;-47
2021/08/25 09:08:27;;;;;;;2.22;2.00;;;22.30;29.50;;;;;;5012531;28;20034;-44
2021/08/25 09:11:03;;;;;;;2.90;2.10;;;22.30;29.80;;;;;;5012728;28;20477;-42
2021/08/25 09:13:35;;;;;;;5.38;2.50;;;22.30;30.30;;;;;;5012609;28;20030;-45
2021/08/25 09:16:01;;;;;;;10.13;2.78;;;22.30;29.90;;;;;;5012649;28;20026;-42
2021/08/25 09:18:26;;;;;;;3.35;2.33;;;22.20;29.90;;;;;;5012638;28;20115;-44
2021/08/25 09:20:52;;;;;;;2.92;2.08;;;22.10;30.30;;;;;;5011548;28;20030;-45
2021/08/25 09:23:25;;;;;;;4.82;2.05;;;22.00;30.80;;;;;;5012565;28;20153;-42
2021/08/25 09:25:56;;;;;;;3.88;2.33;;;21.80;31.40;;;;;;5012659;28;20068;-44
2021/08/25 09:28:34;;;;;;;3.50;2.13;;;21.80;31.80;;;;;;5012442;28;20037;-43
2021/08/25 09:31:07;;;;;;;4.55;2.45;;;21.70;32.70;;;;;;5012564;28;20465;-44
2021/08/25 09:33:38;;;;;;;3.50;1.98;;;21.70;32.50;;;;;;5012400;28;20059;-43
2021/08/25 09:36:07;;;;;;;2.78;2.10;;;21.70;32.30;;;;;;5011651;28;20569;-42
2021/08/25 09:38:34;;;;;;;4.22;2.00;;;21.70;32.30;;;;;;5012453;28;20032;-42
2021/08/25 09:41:11;;;;;;;3.80;2.30;;;21.80;32.50;;;;;;5012487;28;20041;-42
2021/08/25 09:43:40;;;;;;;3.10;2.40;;;21.70;33.10;;;;;;5012310;28;20091;-41
2021/08/25 09:46:22;;;;;;;3.25;2.03;;;21.70;33.30;;;;;;5012452;28;20049;-42
2021/08/25 09:48:53;;;;;;;3.15;2.13;;;21.50;33.20;;;;;;5012417;28;20140;-42
2021/08/25 09:51:25;;;;;;;2.95;2.08;;;21.30;33.60;;;;;;5015010;28;20021;-42
2021/08/25 09:54:02;;;;;;;3.28;2.22;;;21.20;34.40;;;;;;5015916;28;20036;-42
2021/08/25 09:56:34;;;;;;;6.55;2.33;;;21.10;34.80;;;;;;5015747;28;20026;-42
2021/08/25 09:59:01;;;;;;;4.80;2.40;;;20.90;35.00;;;;;;5015857;28;20034;-44
2021/08/25 10:01:28;;;;;;;3.30;2.25;;;20.80;35.70;;;;;;5015808;28;20045;-42
2021/08/25 10:03:55;;;;;;;3.13;2.00;;;20.70;36.40;;;;;;5015624;28;20069;-40
2021/08/25 10:06:23;;;;;;;7.18;2.40;;;20.60;36.90;;;;;;5014724;28;20497;-44
2021/08/25 10:08:49;;;;;;;5.18;2.58;;;20.50;37.40;;;;;;5015520;28;20034;-42
2021/08/25 10:11:17;;;;;;;4.97;2.42;;;20.50;37.60;;;;;;5015600;28;20105;-44
2021/08/25 10:13:43;;;;;;;2.63;2.00;;;20.50;37.90;;;;;;5015615;28;20018;-42
2021/08/25 10:16:12;;;;;;;4.32;2.38;;;20.50;38.40;;;;;;5015628;28;20109;-47
2021/08/25 10:18:41;;;;;;;3.95;2.15;;;20.50;38.70;;;;;;5015480;28;20045;-42
2021/08/25 10:21:32;;;;;;;3.25;1.92;;;20.60;38.70;;;;;;5014509;28;20064;-42
2021/08/25 10:23:59;;;;;;;3.90;2.38;;;20.70;41.10;;;;;;5015321;28;20084;-42
2021/08/25 10:26:26;;;;;;;5.03;2.10;;;20.70;39.20;;;;;;5015288;28;20036;-42
2021/08/25 10:29:11;;;;;;;4.75;2.70;;;20.70;39.20;;;;;;5015215;28;20033;-44
2021/08/25 10:31:52;;;;;;;3.72;2.28;;;20.70;41.20;;;;;;5015028;28;20080;-45
2021/08/25 10:34:24;;;;;;;3.17;2.08;;;20.60;41.90;;;;;;5015173;28;20393;-47
2021/08/25 10:36:50;;;;;;;3.35;2.35;;;20.60;41.20;;;;;;5014237;28;20026;-43
2021/08/25 10:39:32;;;;;;;4.25;2.47;;;20.60;41.20;;;;;;5015081;28;20030;-43
2021/08/25 10:41:59;;;;;;;4.55;2.20;;;20.70;42.20;;;;;;5015012;28;20149;-45
2021/08/25 10:44:37;;;;;;;3.60;2.15;;;20.70;41.50;;;;;;5014876;28;20042;-42
2021/08/25 10:47:03;;;;;;;3.45;2.15;;;20.80;42.20;;;;;;5014952;28;20032;-45
2021/08/25 10:49:37;;;;;;;6.43;2.70;;;20.80;42.20;;;;;;5014808;28;20532;-49
2021/08/25 10:52:15;;;;;;;3.70;2.55;;;20.90;42.60;;;;;;5014060;28;20105;-44
2021/08/25 10:54:48;;;;;;;3.95;2.60;;;21.00;44.40;;;;;;5014784;28;20026;-48
2021/08/25 10:57:16;;;;;;;5.95;2.63;;;21.00;43.20;;;;;;5014886;28;20022;-44
2021/08/25 10:59:41;;;;;;;3.83;2.38;;;21.10;43.30;;;;;;5014681;28;20041;-42
2021/08/25 11:02:07;;;;;;;3.17;1.95;;;21.10;43.40;;;;;;5013770;28;20416;-42
2021/08/25 11:04:33;;;;;;;3.85;2.40;;;21.10;43.70;;;;;;5014478;28;20056;-42
2021/08/25 11:07:10;;;;;;;3.72;2.20;;;21.10;43.80;;;;;;5013626;28;20511;-48
2021/08/25 11:09:50;;;;;;;5.78;2.42;;;21.20;44.20;;;;;;5014469;28;20030;-44
2021/08/25 11:12:23;;;;;;;4.57;2.45;;;21.20;44.20;;;;;;5014591;28;20025;-51
2021/08/25 11:14:54;;;;;;;3.85;2.42;;;21.30;44.50;;;;;;5014439;28;20033;-44
2021/08/25 11:17:22;;;;;;;3.60;2.47;;;21.40;44.50;;;;;;5014407;28;20112;-48
2021/08/25 11:20:06;;;;;;;4.40;2.70;;;21.50;44.70;;;;;;5014201;28;20049;-45
2021/08/25 11:22:47;;;;;;;4.90;2.65;;;21.60;44.70;;;;;;5013298;28;20030;-46
2021/08/25 11:25:17;;;;;;;5.03;2.55;;;21.90;44.20;;;;;;5014250;28;20073;-44
2021/08/25 11:27:48;;;;;;;3.10;2.17;;;22.20;43.40;;;;;;5014042;28;20057;-45
2021/08/25 11:30:14;;;;;;;7.53;2.95;;;22.40;42.60;;;;;;5014032;28;20022;-45
2021/08/25 11:32:54;;;;;;;3.50;2.50;;;22.60;41.70;;;;;;5013944;28;20044;-42
2021/08/25 11:35:42;;;;;;;5.10;2.00;;;22.80;40.70;;;;;;5014122;28;20018;-42
2021/08/25 11:38:17;;;;;;;4.28;2.70;;;22.90;39.60;;;;;;5013597;28;20033;-44
2021/08/25 11:40:48;;;;;;;4.97;2.67;;;23.00;39.80;;;;;;5013785;28;20450;-45
2021/08/25 11:43:24;;;;;;;4.30;2.58;;;23.20;39.70;;;;;;5013971;28;20030;-44
2021/08/25 11:45:51;;;;;;;6.50;3.40;;;23.40;38.60;;;;;;5013909;28;20117;-45
2021/08/25 11:48:18;;;;;;;4.00;2.33;;;23.40;38.80;;;;;;5013840;28;20026;-44
2021/08/25 11:50:48;;;;;;;4.40;2.63;;;23.40;38.90;;;;;;5013202;28;20414;-45
2021/08/25 11:53:18;;;;;;;5.80;3.00;;;23.40;38.10;;;;;;5013681;28;20029;-43
2021/08/25 11:55:45;;;;;;;5.07;2.65;;;23.40;38.80;;;;;;5013632;28;20030;-44
2021/08/25 11:58:30;;;;;;;4.18;2.58;;;23.30;38.60;;;;;;5013664;28;20069;-42
2021/08/25 12:00:58;;;;;;;5.03;2.75;;;23.00;37.40;;;;;;5013394;28;20056;-44
2021/08/25 12:03:43;;;;;;;4.40;2.75;;;22.80;39.20;;;;;;5013258;28;20125;-45
2021/08/25 12:06:10;;;;;;;5.05;2.70;;;22.60;40.20;;;;;;5012611;28;20036;-43
2021/08/25 12:08:41;;;;;;;4.60;2.65;;;22.50;40.90;;;;;;5013380;28;20113;-43
2021/08/25 12:11:09;;;;;;;4.32;2.53;;;22.40;40.80;;;;;;5013375;28;20049;-42
2021/08/25 12:13:56;;;;;;;3.83;2.58;;;22.10;41.40;;;;;;5013093;28;20026;-42
2021/08/25 12:16:26;;;;;;;;;;;22.00;42.80;;;;;;5013837;28;20437;-45
2021/08/25 12:18:54;;;;;;;6.45;2.67;;;21.80;41.80;;;;;;5013190;28;20381;-45
2021/08/25 12:21:27;;;;;;;5.82;3.25;;;21.60;42.60;;;;;;5012403;28;20025;-42
2021/08/25 12:24:04;;;;;;;4.53;2.70;;;21.60;44.10;;;;;;5013157;28;20033;-45
2021/08/25 12:26:31;;;;;;;3.70;2.63;;;21.50;43.90;;;;;;5013100;28;20034;-44
2021/08/25 12:28:59;;;;;;;8.90;3.50;;;21.50;44.00;;;;;;5013009;28;20037;-42
2021/08/25 12:31:31;;;;;;;5.22;2.60;;;21.60;43.80;;;;;;5013186;28;20042;-42
2021/08/25 12:34:11;;;;;;;6.32;2.78;;;21.60;43.50;;;;;;5013073;28;20061;-42
2021/08/25 12:36:53;;;;;;;6.15;2.80;;;21.90;45.30;;;;;;5012100;28;20030;-42
2021/08/25 12:39:23;;;;;;;3.60;2.70;;;22.10;43.50;;;;;;5013064;28;20065;-42
2021/08/25 12:41:50;;;;;;;4.72;2.75;;;22.30;42.80;;;;;;5012956;28;20071;-43
2021/08/25 12:44:17;;;;;;;3.58;2.42;;;22.50;41.70;;;;;;5013034;28;20109;-42
2021/08/25 12:47:01;;;;;;;3.65;2.53;;;22.60;41.50;;;;;;5012867;28;20037;-42
2021/08/25 12:49:29;;;;;;;5.68;2.30;;;22.70;41.60;;;;;;5012754;28;20068;-44
2021/08/25 12:51:57;;;;;;;4.03;2.40;;;22.60;41.80;;;;;;5011969;28;20022;-43